Time;durP1;ratioP1;P1;durP2;ratioP2;P2;SDS_P1;SDS_P2;PMS_P1;PMS_P2;Temp;Humidity;BMP_temperature;BMP_pressure;BME280_temperature;BME280_humidity;BME280_pressure;Samples;Min_cycle;Max_cycle;Signal;HPM_P1;HPM_P2
2023/11/16 00:03:01;;;;;;;;;;;;;;;9.22;100.00;98696.66;136783;1280;22377;-72
2023/11/16 00:06:04;;;;;;;26.50;11.50;;;;;;;9.45;100.00;98696.16;136759;1280;22081;-71
2023/11/16 00:09:06;;;;;;;27.10;11.90;;;;;;;9.44;100.00;98695.02;136757;1280;22082;-72
2023/11/16 00:12:11;;;;;;;29.50;12.00;;;;;;;9.35;100.00;98700.08;136746;1274;22196;-71
2023/11/16 00:15:14;;;;;;;26.70;11.40;;;;;;;9.49;100.00;98700.67;136751;1280;22123;-69
2023/11/16 00:18:17;;;;;;;29.00;11.70;;;;;;;9.43;100.00;98703.10;136745;1280;22095;-72
2023/11/16 00:21:19;;;;;;;29.40;12.10;;;;;;;9.45;100.00;98704.20;136782;1280;22244;-70
2023/11/16 00:24:24;;;;;;;29.10;11.30;;;;;;;9.38;100.00;98707.60;136753;1280;22078;-72
2023/11/16 00:27:28;;;;;;;28.50;11.70;;;;;;;9.18;100.00;98706.27;136750;1280;22811;-72
2023/11/16 00:30:30;;;;;;;29.70;12.60;;;;;;;9.28;100.00;98702.08;136732;1280;22152;-72
2023/11/16 00:33:33;;;;;;;28.60;11.80;;;;;;;9.26;100.00;98713.70;136769;1280;23209;-71
2023/11/16 00:36:36;;;;;;;30.80;12.10;;;;;;;9.32;100.00;98714.36;136751;1280;22443;-72
2023/11/16 00:39:39;;;;;;;26.90;11.80;;;;;;;9.30;100.00;98716.77;136785;1280;22345;-72
2023/11/16 00:42:42;;;;;;;30.60;13.10;;;;;;;9.25;100.00;98723.36;136739;1280;22093;-71
2023/11/16 00:45:44;;;;;;;30.00;12.40;;;;;;;9.18;100.00;98729.66;136720;1280;22145;-73
2023/11/16 00:48:47;;;;;;;28.40;12.70;;;;;;;9.17;100.00;98730.61;136757;1271;22171;-72
2023/11/16 00:51:49;;;;;;;;;;;;;;;9.08;100.00;98733.02;136743;1263;22315;-72
2023/11/16 00:54:52;;;;;;;28.10;12.30;;;;;;;9.00;100.00;98733.63;136757;1280;22139;-72
2023/11/16 00:57:55;;;;;;;28.40;12.50;;;;;;;8.97;100.00;98739.38;136744;1280;22093;-71
2023/11/16 01:00:58;;;;;;;31.40;13.00;;;;;;;9.05;100.00;98739.98;136750;1275;22099;-72
2023/11/16 01:04:01;;;;;;;28.00;12.30;;;;;;;9.01;100.00;98741.77;136746;1280;22177;-72
2023/11/16 01:07:04;;;;;;;28.50;11.90;;;;;;;9.02;100.00;98745.55;136745;1279;22115;-72
2023/11/16 01:10:10;;;;;;;27.80;12.30;;;;;;;8.90;100.00;98745.17;136744;1280;22619;-71
2023/11/16 01:13:13;;;;;;;27.40;12.30;;;;;;;8.69;100.00;98745.42;136735;1280;22310;-72
2023/11/16 01:16:17;;;;;;;31.20;13.10;;;;;;;8.69;100.00;98746.35;136731;1264;22106;-72
2023/11/16 01:19:25;;;;;;;30.30;13.00;;;;;;;8.75;100.00;98745.98;136741;1280;22172;-72
2023/11/16 01:22:30;;;;;;;28.70;11.70;;;;;;;8.75;100.00;98752.30;136727;1280;22743;-70
2023/11/16 01:25:32;;;;;;;28.00;11.50;;;;;;;8.64;100.00;98753.23;136697;1280;22172;-71
2023/11/16 01:28:35;;;;;;;;;;;;;;;8.56;100.00;98761.14;136750;1261;22324;-72
2023/11/16 01:31:39;;;;;;;27.30;11.00;;;;;;;8.61;100.00;98761.38;136709;1280;22153;-72
2023/11/16 01:34:42;;;;;;;28.10;11.90;;;;;;;8.61;100.00;98760.70;136717;1280;22230;-72
2023/11/16 01:37:44;;;;;;;28.90;12.00;;;;;;;8.60;100.00;98760.73;136716;1280;22772;-72
2023/11/16 01:40:47;;;;;;;;;;;;;;;8.66;100.00;98760.24;136767;1280;23272;-72
2023/11/16 01:43:50;;;;;;;28.50;12.90;;;;;;;8.74;100.00;98766.98;136739;1280;22153;-72
2023/11/16 01:46:53;;;;;;;38.50;14.60;;;;;;;8.67;100.00;98761.92;136721;1280;22181;-72
2023/11/16 01:49:55;;;;;;;36.60;14.30;;;;;;;8.70;100.00;98755.85;136737;1260;22178;-72
2023/11/16 01:53:04;;;;;;;;;;;;;;;8.69;100.00;98765.34;136740;1280;22341;-72
2023/11/16 01:56:07;;;;;;;47.10;16.80;;;;;;;8.44;100.00;98770.29;136742;1280;22258;-72
2023/11/16 01:59:10;;;;;;;;;;;;;;;8.56;100.00;98774.56;136753;1280;22339;-72
2023/11/16 02:02:12;;;;;;;28.30;10.40;;;;;;;8.45;100.00;98783.48;136722;1280;22106;-73
2023/11/16 02:05:15;;;;;;;29.20;11.70;;;;;;;8.34;100.00;98786.48;136714;1280;22107;-72
2023/11/16 02:08:17;;;;;;;30.90;12.40;;;;;;;8.29;100.00;98789.16;136721;1264;22073;-72
2023/11/16 02:11:20;;;;;;;30.90;12.60;;;;;;;8.39;100.00;98787.62;136727;1280;22206;-73
2023/11/16 02:14:23;;;;;;;114.00;39.50;;;;;;;8.34;100.00;98785.82;136709;1280;22179;-72
2023/11/16 02:17:26;;;;;;;67.10;24.70;;;;;;;8.26;100.00;98787.59;136734;1280;22373;-72
2023/11/16 02:20:29;;;;;;;51.90;19.40;;;;;;;8.23;100.00;98788.81;136726;1280;22980;-71
2023/11/16 02:23:31;;;;;;;44.30;17.50;;;;;;;8.06;100.00;98787.95;136738;1279;22093;-72
2023/11/16 02:26:34;;;;;;;35.70;14.20;;;;;;;7.89;100.00;98787.20;136727;1280;22758;-72
2023/11/16 02:29:36;;;;;;;32.10;14.00;;;;;;;7.67;100.00;98784.83;136709;1280;22069;-72
2023/11/16 02:32:39;;;;;;;28.00;12.60;;;;;;;7.44;100.00;98787.87;136706;1280;22387;-70
2023/11/16 02:35:42;;;;;;;33.20;13.70;;;;;;;7.39;100.00;98783.94;136723;1280;22176;-71
2023/11/16 02:38:44;;;;;;;32.50;12.70;;;;;;;7.46;100.00;98791.63;136702;1280;22131;-72
2023/11/16 02:41:47;;;;;;;26.30;10.30;;;;;;;7.37;100.00;98793.95;136722;1279;22275;-72
2023/11/16 02:44:51;;;;;;;25.30;9.60;;;;;;;7.29;100.00;98793.64;136715;1280;22175;-72
2023/11/16 02:47:54;;;;;;;27.30;9.90;;;;;;;7.22;100.00;98799.91;136713;1263;22119;-71
2023/11/16 02:50:56;;;;;;;44.30;9.60;;;;;;;7.26;100.00;98798.66;136716;1280;22804;-72
2023/11/16 02:54:06;;;;;;;;;;;;;;;7.31;100.00;98801.19;136736;1280;23105;-72
2023/11/16 02:57:09;;;;;;;47.10;8.50;;;;;;;6.90;100.00;98810.59;136704;1260;22116;-72
2023/11/16 03:00:12;;;;;;;50.10;6.70;;;;;;;6.45;100.00;98815.55;136714;1280;22169;-72
2023/11/16 03:03:15;;;;;;;21.80;6.40;;;;;;;6.31;100.00;98812.88;136709;1280;22911;-70
2023/11/16 03:06:18;;;;;;;16.30;5.30;;;;;;;6.17;100.00;98812.25;136727;1280;22088;-72
2023/11/16 03:09:21;;;;;;;17.30;5.10;;;;;;;6.25;100.00;98807.43;136708;1280;22085;-72
2023/11/16 03:12:24;;;;;;;23.60;6.30;;;;;;;6.32;100.00;98812.14;136708;1280;22098;-72
2023/11/16 03:15:27;;;;;;;30.60;7.70;;;;;;;6.28;100.00;98817.19;136646;1280;22988;-71
2023/11/16 03:18:29;;;;;;;27.20;9.00;;;;;;;6.22;100.00;98823.52;136731;1280;22168;-71
2023/11/16 03:21:32;;;;;;;;;;;;;;;6.16;100.00;98824.98;136745;1280;23277;-72
2023/11/16 03:24:35;;;;;;;;;;;;;;;6.07;100.00;98822.23;136732;1262;22402;-71
2023/11/16 03:27:37;;;;;;;36.40;11.90;;;;;;;6.06;100.00;98827.33;136674;1280;22141;-71
2023/11/16 03:30:40;;;;;;;;;;;;;;;6.03;100.00;98825.36;136684;1280;22371;-70
2023/11/16 03:33:43;;;;;;;41.30;17.00;;;;;;;6.09;100.00;98827.89;136706;1280;22137;-71
2023/11/16 03:36:45;;;;;;;43.10;14.00;;;;;;;6.08;100.00;98834.19;136707;1280;23221;-72
2023/11/16 03:39:48;;;;;;;28.20;9.80;;;;;;;6.00;100.00;98839.90;136710;1262;22128;-71
2023/11/16 03:42:52;;;;;;;34.40;12.20;;;;;;;5.97;100.00;98842.95;108591;1280;1003271;-71
2023/11/16 03:45:54;;;;;;;29.50;11.00;;;;;;;6.08;100.00;98844.58;68396;1280;1015627;-72
2023/11/16 03:48:57;;;;;;;31.10;12.00;;;;;;;6.08;100.00;98844.60;68378;1280;1016051;-72
2023/11/16 03:51:59;;;;;;;36.00;14.10;;;;;;;6.13;100.00;98842.65;68374;1280;1015801;-72
2023/11/16 03:55:02;;;;;;;38.30;16.40;;;;;;;6.27;100.00;98842.39;68395;1280;1015773;-71
2023/11/16 03:58:04;;;;;;;40.80;17.20;;;;;;;6.33;100.00;98842.66;68394;1280;1016121;-72
2023/11/16 04:01:07;;;;;;;42.60;20.20;;;;;;;6.51;100.00;98847.61;68384;1280;1016013;-71
2023/11/16 04:04:10;;;;;;;29.10;10.90;;;;;;;6.77;100.00;98848.71;68370;1280;1016011;-72
2023/11/16 04:07:13;;;;;;;19.70;5.70;;;;;;;6.89;100.00;98856.69;68383;1280;1015759;-71
2023/11/16 04:10:15;;;;;;;19.80;6.60;;;;;;;6.86;100.00;98858.22;68380;1280;1016016;-73
2023/11/16 04:13:18;;;;;;;23.90;7.90;;;;;;;6.78;100.00;98855.97;68376;1280;1016035;-72
2023/11/16 04:16:23;;;;;;;25.60;8.80;;;;;;;6.61;100.00;98859.31;68392;1280;1015977;-72
2023/11/16 04:19:26;;;;;;;33.20;13.70;;;;;;;6.72;100.00;98861.63;68353;1280;1015795;-72
2023/11/16 04:22:30;;;;;;;39.90;17.20;;;;;;;6.80;100.00;98863.54;68407;1280;1016533;-72
2023/11/16 04:25:33;;;;;;;33.70;14.50;;;;;;;6.84;100.00;98861.79;68390;1280;1015922;-71
2023/11/16 04:28:36;;;;;;;38.30;15.30;;;;;;;7.03;100.00;98857.82;68377;1279;1015830;-72
2023/11/16 04:31:39;;;;;;;34.20;14.10;;;;;;;7.14;100.00;98847.56;68390;1280;1015748;-72
2023/11/16 04:34:42;;;;;;;34.20;14.50;;;;;;;7.05;100.00;98848.48;68387;1280;1015636;-72
2023/11/16 04:37:46;;;;;;;;;;;;;;;6.83;100.00;98844.98;68380;1280;1016581;-72
2023/11/16 04:40:48;;;;;;;33.90;14.90;;;;;;;6.96;100.00;98846.45;68387;1280;1015300;-71
2023/11/16 04:43:51;;;;;;;34.50;14.40;;;;;;;7.00;100.00;98843.14;68375;1280;1015510;-72
2023/11/16 04:46:53;;;;;;;35.00;17.00;;;;;;;6.93;100.00;98845.71;68376;1280;1015539;-71
2023/11/16 04:49:56;;;;;;;40.00;15.80;;;;;;;6.83;100.00;98843.41;68391;1279;1016027;-71
2023/11/16 04:52:58;;;;;;;40.90;15.40;;;;;;;6.70;100.00;98851.80;68396;1279;1015135;-72
2023/11/16 04:56:01;;;;;;;;;;;;;;;6.77;100.00;98854.64;68409;1279;1016102;-72
2023/11/16 04:59:04;;;;;;;34.70;14.70;;;;;;;6.67;100.00;98854.04;68391;1280;1015560;-72
2023/11/16 05:02:07;;;;;;;33.50;14.00;;;;;;;6.63;100.00;98854.89;68388;1280;1015213;-71
2023/11/16 05:05:10;;;;;;;35.90;15.30;;;;;;;6.78;100.00;98857.36;68395;1280;1015676;-71
2023/11/16 05:08:12;;;;;;;30.20;11.80;;;;;;;6.70;100.00;98858.56;68375;1280;1015797;-72
2023/11/16 05:11:15;;;;;;;38.00;16.70;;;;;;;6.49;100.00;98861.77;68386;1280;1015485;-71
2023/11/16 05:14:19;;;;;;;27.70;11.00;;;;;;;6.32;100.00;98868.73;68409;1280;1015518;-71
2023/11/16 05:17:21;;;;;;;25.60;10.40;;;;;;;6.50;100.00;98872.00;68397;1280;1015805;-72
2023/11/16 05:20:24;;;;;;;24.10;9.00;;;;;;;6.51;100.00;98869.49;68393;1280;1014625;-71
2023/11/16 05:23:27;;;;;;;26.70;10.80;;;;;;;6.39;100.00;98873.81;68377;1280;1015528;-71
2023/11/16 05:26:29;;;;;;;24.40;9.70;;;;;;;6.12;100.00;98868.88;68380;1280;1015670;-73
2023/11/16 05:29:32;;;;;;;;;;;;;;;5.99;100.00;98869.10;68395;1280;1016198;-70
2023/11/16 05:32:34;;;;;;;22.50;8.80;;;;;;;5.96;100.00;98870.42;68383;1280;1016040;-71
2023/11/16 05:35:38;;;;;;;21.40;8.30;;;;;;;5.93;100.00;98875.73;68405;1280;1016036;-71
2023/11/16 05:38:43;;;;;;;25.40;9.20;;;;;;;5.77;100.00;98887.65;68394;1280;1015735;-71
2023/11/16 05:41:46;;;;;;;25.60;8.40;;;;;;;5.46;100.00;98897.36;68382;1280;1016298;-71
2023/11/16 05:44:49;;;;;;;23.00;7.80;;;;;;;5.36;100.00;98907.80;68392;1280;1015455;-68
2023/11/16 05:47:51;;;;;;;;;;;;;;;5.44;100.00;98916.18;68399;1280;1015580;-72
2023/11/16 05:50:55;;;;;;;24.00;8.30;;;;;;;5.45;100.00;98914.94;68406;1280;1015649;-71
2023/11/16 05:53:58;;;;;;;24.60;8.50;;;;;;;5.48;100.00;98911.88;68391;1279;1015683;-71
2023/11/16 05:57:00;;;;;;;23.80;9.00;;;;;;;5.65;100.00;98911.05;68400;1280;1015917;-72
2023/11/16 06:00:07;;;;;;;25.20;9.30;;;;;;;5.83;100.00;98908.59;68377;1280;1016076;-71
2023/11/16 06:03:10;;;;;;;29.40;10.60;;;;;;;5.96;100.00;98909.45;68372;1280;1014878;-70
2023/11/16 06:06:13;;;;;;;28.90;11.00;;;;;;;6.16;100.00;98902.77;68374;1280;1016092;-71
2023/11/16 06:09:17;;;;;;;29.60;11.70;;;;;;;6.25;100.00;98906.05;68391;1280;1016956;-72
2023/11/16 06:12:19;;;;;;;;;;;;;;;6.36;100.00;98902.46;68376;1280;1015613;-71
2023/11/16 06:15:25;;;;;;;37.10;13.50;;;;;;;6.47;100.00;98902.33;68384;1280;1015855;-71
2023/11/16 06:18:27;;;;;;;27.80;12.00;;;;;;;6.52;100.00;98898.13;68401;1280;1015993;-72
2023/11/16 06:21:30;;;;;;;30.10;11.80;;;;;;;6.41;100.00;98902.75;68397;1280;1015751;-71
2023/11/16 06:24:32;;;;;;;39.70;16.10;;;;;;;6.60;100.00;98904.91;68386;1280;1015236;-72
2023/11/16 06:27:35;;;;;;;48.20;17.30;;;;;;;6.77;100.00;98900.66;68393;1280;1015534;-71
2023/11/16 06:30:40;;;;;;;56.20;22.10;;;;;;;6.81;100.00;98901.39;68392;1280;1015046;-71
2023/11/16 06:33:44;;;;;;;45.70;19.20;;;;;;;6.95;100.00;98901.79;68391;1280;1015630;-71
2023/11/16 06:36:47;;;;;;;46.20;21.10;;;;;;;7.17;100.00;98905.35;68389;1280;1016086;-71
2023/11/16 06:39:50;;;;;;;54.40;28.10;;;;;;;7.11;100.00;98898.48;68401;1280;1015255;-72
2023/11/16 06:42:53;;;;;;;43.90;21.10;;;;;;;7.03;100.00;98894.98;68371;1280;1015501;-71
2023/11/16 06:45:58;;;;;;;37.90;17.40;;;;;;;7.18;100.00;98891.74;68398;1280;1015629;-71
2023/11/16 06:49:01;;;;;;;40.40;18.70;;;;;;;7.19;100.00;98893.77;68403;1280;1016062;-71
2023/11/16 06:52:05;;;;;;;46.40;20.80;;;;;;;7.38;100.00;98891.98;68394;1280;1015430;-71
2023/11/16 06:55:10;;;;;;;45.40;19.80;;;;;;;7.09;100.00;98890.94;68390;1280;1015852;-72
2023/11/16 06:58:13;;;;;;;37.30;16.70;;;;;;;6.85;100.00;98886.43;68397;1280;1015382;-71
2023/11/16 07:01:15;;;;;;;37.40;16.20;;;;;;;6.82;100.00;98894.55;68406;1280;1016028;-72
2023/11/16 07:04:18;;;;;;;35.70;15.40;;;;;;;6.92;100.00;98892.73;68392;1279;1015837;-71
2023/11/16 07:07:21;;;;;;;44.40;18.70;;;;;;;7.10;100.00;98895.75;68406;1280;1015336;-71
2023/11/16 07:10:23;;;;;;;38.80;16.50;;;;;;;7.33;100.00;98899.20;68371;1280;1015683;-71
2023/11/16 07:13:26;;;;;;;38.50;16.30;;;;;;;7.45;100.00;98900.02;68391;1280;1015802;-72
2023/11/16 07:16:29;;;;;;;37.00;15.90;;;;;;;7.65;100.00;98902.42;68418;1279;1015713;-72
2023/11/16 07:19:32;;;;;;;33.70;15.10;;;;;;;7.76;100.00;98897.02;68413;1280;1016059;-71
2023/11/16 07:22:35;;;;;;;36.60;15.70;;;;;;;7.82;100.00;98898.63;68382;1280;1015441;-71
2023/11/16 07:25:38;;;;;;;35.10;14.50;;;;;;;7.87;100.00;98899.80;68373;1280;1016284;-72
2023/11/16 07:28:42;;;;;;;32.60;14.10;;;;;;;8.03;100.00;98898.33;68391;1279;1015807;-72
2023/11/16 07:31:44;;;;;;;31.20;13.60;;;;;;;8.08;100.00;98894.23;68395;1280;1016183;-72
2023/11/16 07:34:47;;;;;;;34.70;13.70;;;;;;;8.15;100.00;98885.88;68379;1280;1014507;-71
2023/11/16 07:37:53;;;;;;;30.40;12.90;;;;;;;8.32;100.00;98880.14;68384;1280;1015361;-72
2023/11/16 07:40:57;;;;;;;29.70;12.10;;;;;;;8.50;100.00;98875.27;68395;1280;1014767;-71
2023/11/16 07:44:09;;;;;;;28.90;12.30;;;;;;;8.55;100.00;98877.80;66184;1280;1015965;-71
2023/11/16 07:47:13;;;;;;;29.90;12.70;;;;;;;8.79;100.00;98875.30;68400;1280;1015459;-70
2023/11/16 07:50:16;;;;;;;26.50;10.40;;;;;;;8.94;100.00;98878.71;68384;1280;1015380;-71
2023/11/16 07:53:18;;;;;;;24.20;10.60;;;;;;;9.03;100.00;98881.02;68399;1280;1015789;-70
2023/11/16 07:56:22;;;;;;;27.30;11.00;;;;;;;9.09;100.00;98886.29;68395;1280;1014418;-71
2023/11/16 07:59:31;;;;;;;26.50;10.90;;;;;;;9.25;100.00;98888.89;68408;1280;1014803;-71
2023/11/16 08:03:41;;;;;;;26.20;10.70;;;;;;;9.44;100.00;98885.78;68385;1280;1015280;-70
2023/11/16 08:05:56;;;;;;;38.70;16.90;;;;;;;9.56;100.00;98889.12;68405;1280;1016158;-71
2023/11/16 08:08:58;;;;;;;;;;;;;;;9.55;100.00;98891.33;68404;1280;1015882;-71
2023/11/16 08:12:03;;;;;;;56.60;20.70;;;;;;;9.43;100.00;98887.77;68405;1280;1014325;-71
2023/11/16 08:15:07;;;;;;;69.70;25.50;;;;;;;9.55;100.00;98888.34;68397;1280;1016552;-71
2023/11/16 08:18:10;;;;;;;70.00;26.90;;;;;;;9.65;100.00;98888.13;68417;1280;1015680;-71
2023/11/16 08:21:12;;;;;;;63.80;25.00;;;;;;;9.65;100.00;98883.94;68389;1280;1015412;-71
2023/11/16 08:24:15;;;;;;;50.40;21.70;;;;;;;9.85;100.00;98886.30;68415;1279;1015219;-71
2023/11/16 08:27:18;;;;;;;;;;;;;;;9.92;100.00;98886.11;68412;1279;1015742;-71
2023/11/16 08:30:22;;;;;;;42.50;17.50;;;;;;;9.96;100.00;98886.00;68412;1279;1015594;-71
2023/11/16 08:33:25;;;;;;;39.50;18.30;;;;;;;9.91;100.00;98881.56;68391;1279;1015457;-71
2023/11/16 08:36:28;;;;;;;36.10;16.50;;;;;;;9.95;100.00;98883.63;68394;1279;1015307;-71
2023/11/16 08:39:31;;;;;;;33.20;14.10;;;;;;;10.20;100.00;98883.94;68405;1279;1016061;-71
2023/11/16 08:42:41;;;;;;;40.80;17.80;;;;;;;10.21;100.00;98886.33;68380;1279;1015773;-71
2023/11/16 08:45:47;;;;;;;52.10;22.80;;;;;;;10.25;100.00;98888.55;68404;1279;1015191;-71
2023/11/16 08:48:49;;;;;;;42.10;18.60;;;;;;;10.27;100.00;98888.59;68409;1280;1015453;-70
2023/11/16 08:51:58;;;;;;;51.90;19.30;;;;;;;10.35;100.00;98885.72;68404;1279;1015996;-71
2023/11/16 08:55:02;;;;;;;55.40;18.60;;;;;;;10.40;100.00;98890.32;68381;1279;1015831;-71
2023/11/16 08:58:06;;;;;;;36.50;14.60;;;;;;;10.51;100.00;98888.45;68402;1279;1015782;-71
2023/11/16 09:01:10;;;;;;;36.40;15.60;;;;;;;10.65;100.00;98892.00;68389;1280;1015416;-71
2023/11/16 09:04:13;;;;;;;33.90;14.20;;;;;;;10.75;100.00;98886.98;68405;1279;1015760;-71
2023/11/16 09:07:15;;;;;;;32.30;14.00;;;;;;;10.83;100.00;98883.89;68395;1280;1015556;-71
2023/11/16 09:10:19;;;;;;;30.40;14.40;;;;;;;10.80;100.00;98878.67;68412;1280;1015650;-71
2023/11/16 09:13:22;;;;;;;35.40;15.20;;;;;;;10.88;100.00;98875.91;68414;1279;1015437;-72
2023/11/16 09:16:24;;;;;;;34.70;15.00;;;;;;;10.91;100.00;98879.56;68408;1279;1015337;-72
2023/11/16 09:19:27;;;;;;;32.60;14.70;;;;;;;10.99;100.00;98877.67;68394;1280;1015787;-71
2023/11/16 09:22:33;;;;;;;30.50;14.30;;;;;;;11.16;100.00;98879.44;68404;1280;1015927;-71
2023/11/16 09:25:36;;;;;;;30.70;14.30;;;;;;;11.27;100.00;98876.83;68429;1280;1015482;-71
2023/11/16 09:28:38;;;;;;;36.50;16.30;;;;;;;11.30;100.00;98865.13;68420;1256;1015505;-71
2023/11/16 09:31:43;;;;;;;33.90;15.20;;;;;;;11.38;100.00;98865.11;68414;1280;1015809;-71
2023/11/16 09:34:46;;;;;;;30.70;14.10;;;;;;;11.33;100.00;98864.21;68410;1280;1016186;-71
2023/11/16 09:37:49;;;;;;;32.30;14.40;;;;;;;11.38;100.00;98863.16;68435;1280;1014691;-71
2023/11/16 09:40:51;;;;;;;31.00;14.50;;;;;;;11.38;100.00;98857.90;68409;1280;1016141;-72
2023/11/16 09:43:54;;;;;;;33.00;15.40;;;;;;;11.49;100.00;98859.14;68424;1280;1016197;-71
2023/11/16 09:46:59;;;;;;;32.60;15.30;;;;;;;11.59;100.00;98859.02;68399;1280;1016069;-70
2023/11/16 09:50:01;;;;;;;31.70;14.70;;;;;;;11.60;100.00;98854.96;68410;1280;1016193;-71
2023/11/16 09:53:05;;;;;;;33.50;14.70;;;;;;;11.64;100.00;98854.84;68408;1280;1015967;-72
2023/11/16 09:56:09;;;;;;;33.00;15.20;;;;;;;11.67;100.00;98846.95;68419;1280;1015533;-71
2023/11/16 09:59:17;;;;;;;31.50;14.20;;;;;;;11.66;100.00;98843.66;68408;1280;1015537;-72
2023/11/16 10:02:23;;;;;;;31.00;14.00;;;;;;;11.73;100.00;98829.38;68416;1280;1015569;-71
2023/11/16 10:05:26;;;;;;;31.20;14.90;;;;;;;11.92;100.00;98824.16;68433;1280;1015338;-71
2023/11/16 10:08:29;;;;;;;30.50;14.30;;;;;;;12.02;100.00;98819.83;68390;1280;1015359;-71
2023/11/16 10:11:32;;;;;;;33.10;14.20;;;;;;;11.88;100.00;98816.89;68406;1280;1015501;-72
2023/11/16 10:14:38;;;;;;;30.90;14.50;;;;;;;12.06;100.00;98815.86;68423;1280;1015733;-72
2023/11/16 10:17:41;;;;;;;32.30;15.80;;;;;;;12.13;100.00;98813.65;68407;1280;1016104;-71
2023/11/16 10:20:44;;;;;;;31.20;14.40;;;;;;;11.94;100.00;98802.29;68422;1280;1016078;-71
2023/11/16 10:23:47;;;;;;;33.10;15.00;;;;;;;11.89;100.00;98803.97;68407;1280;1016127;-71
2023/11/16 10:26:51;;;;;;;32.50;15.60;;;;;;;11.90;100.00;98798.52;68421;1280;1015565;-71
2023/11/16 10:29:56;;;;;;;38.60;17.00;;;;;;;11.97;100.00;98794.57;68406;1280;1016104;-71
2023/11/16 10:32:59;;;;;;;41.00;17.80;;;;;;;12.02;100.00;98791.25;68418;1280;1015906;-70
2023/11/16 10:36:01;;;;;;;36.20;16.50;;;;;;;12.09;100.00;98789.69;68427;1280;1015676;-71
2023/11/16 10:39:04;;;;;;;33.00;15.90;;;;;;;12.03;100.00;98791.33;68441;1280;1015408;-71
2023/11/16 10:42:08;;;;;;;34.90;16.80;;;;;;;11.97;100.00;98791.94;68431;1280;1015734;-72
2023/11/16 10:45:12;;;;;;;37.20;17.50;;;;;;;11.88;100.00;98791.79;68436;1279;1016172;-71
2023/11/16 10:48:18;;;;;;;37.30;18.00;;;;;;;11.87;100.00;98792.08;68428;1280;1015516;-71
2023/11/16 10:51:21;;;;;;;33.30;16.40;;;;;;;11.89;100.00;98786.30;68420;1279;1015786;-71
2023/11/16 10:54:25;;;;;;;36.60;17.60;;;;;;;11.82;100.00;98779.73;68414;1279;1015449;-71
2023/11/16 10:57:29;;;;;;;37.90;19.00;;;;;;;11.85;100.00;98783.59;68412;1280;1015483;-71
2023/11/16 11:00:34;;;;;;;37.80;18.30;;;;;;;11.83;100.00;98784.81;68429;1279;1015225;-71
2023/11/16 11:03:36;;;;;;;39.80;19.50;;;;;;;11.70;100.00;98781.61;68427;1280;1015999;-71
2023/11/16 11:06:39;;;;;;;36.30;18.70;;;;;;;11.71;100.00;98781.32;68433;1280;1015452;-72
2023/11/16 11:09:42;;;;;;;38.90;19.70;;;;;;;11.66;100.00;98778.23;68428;1280;1016116;-72
2023/11/16 11:12:45;;;;;;;38.30;19.60;;;;;;;11.84;100.00;98781.23;68426;1280;1015295;-71
2023/11/16 11:15:48;;;;;;;42.70;21.10;;;;;;;11.84;100.00;98775.77;68431;1280;1015790;-71
2023/11/16 11:18:52;;;;;;;40.90;19.70;;;;;;;11.92;100.00;98765.75;68435;1280;1014736;-70
2023/11/16 11:21:55;;;;;;;41.00;19.80;;;;;;;12.19;100.00;98749.05;68446;1280;1015243;-71
2023/11/16 11:24:57;;;;;;;36.70;19.80;;;;;;;12.35;100.00;98739.77;68406;1280;1016112;-71
2023/11/16 11:28:00;;;;;;;38.50;20.10;;;;;;;12.52;100.00;98737.52;68415;1280;1015693;-72
2023/11/16 11:31:04;;;;;;;41.40;20.10;;;;;;;12.61;100.00;98740.54;68430;1280;1015975;-71
2023/11/16 11:34:11;;;;;;;44.40;20.90;;;;;;;12.39;100.00;98742.10;68422;1280;1016075;-72
2023/11/16 11:37:15;;;;;;;38.50;19.10;;;;;;;12.43;100.00;98746.55;68447;1280;1015608;-72
2023/11/16 11:40:18;;;;;;;38.10;18.60;;;;;;;12.47;100.00;98751.75;68410;1280;1015827;-71
2023/11/16 11:43:20;;;;;;;35.80;19.00;;;;;;;12.39;100.00;98746.15;68420;1280;1015332;-72
2023/11/16 11:46:23;;;;;;;;;;;;;;;12.26;100.00;98748.78;68439;1280;1016439;-72
2023/11/16 11:49:26;;;;;;;35.10;17.60;;;;;;;12.28;100.00;98747.89;68434;1280;1015133;-72
2023/11/16 11:52:29;;;;;;;38.60;19.00;;;;;;;12.29;100.00;98743.86;68429;1280;1015450;-72
2023/11/16 11:55:31;;;;;;;37.30;19.00;;;;;;;12.26;100.00;98738.98;68424;1280;1015993;-71
2023/11/16 11:58:35;;;;;;;35.10;17.10;;;;;;;12.41;100.00;98738.62;68428;1279;1015489;-72
2023/11/16 12:01:38;;;;;;;36.00;17.80;;;;;;;12.41;100.00;98732.46;68414;1280;1016879;-71
2023/11/16 12:04:41;;;;;;;39.70;18.10;;;;;;;12.50;100.00;98731.86;68425;1280;1015997;-71
2023/11/16 12:07:43;;;;;;;37.00;18.20;;;;;;;12.55;100.00;98724.49;68437;1280;1014967;-71
2023/11/16 12:10:46;;;;;;;35.40;17.00;;;;;;;12.62;100.00;98721.16;68440;1280;1015391;-66
2023/11/16 12:13:51;;;;;;;37.00;17.70;;;;;;;12.70;100.00;98718.05;68429;1280;1016043;-72
2023/11/16 12:16:53;;;;;;;35.50;16.90;;;;;;;12.58;100.00;98714.80;68409;1279;1016116;-71
2023/11/16 12:19:58;;;;;;;40.80;17.80;;;;;;;12.46;100.00;98707.08;68420;1280;1016429;-71
2023/11/16 12:23:02;;;;;;;35.70;17.80;;;;;;;12.80;100.00;98698.15;68423;1256;1016015;-71
2023/11/16 12:26:07;;;;;;;36.70;18.30;;;;;;;13.00;100.00;98695.64;68434;1279;1016091;-72
2023/11/16 12:29:10;;;;;;;36.70;17.10;;;;;;;12.81;100.00;98698.63;68428;1279;1015298;-71
2023/11/16 12:32:12;;;;;;;35.40;17.80;;;;;;;12.78;100.00;98700.95;68419;1279;1015029;-71
2023/11/16 12:35:15;;;;;;;36.20;17.50;;;;;;;12.70;100.00;98699.95;68417;1280;1016164;-72
2023/11/16 12:38:19;;;;;;;35.40;17.50;;;;;;;12.84;100.00;98698.40;68421;1280;1015986;-72
2023/11/16 12:41:22;;;;;;;36.30;18.50;;;;;;;13.25;100.00;98690.16;68443;1280;1016175;-72
2023/11/16 12:44:25;;;;;;;40.60;20.80;;;;;;;13.52;100.00;98677.14;68424;1279;1016059;-71
2023/11/16 12:47:28;;;;;;;41.10;20.40;;;;;;;13.67;100.00;98671.29;68412;1280;1015738;-72
2023/11/16 12:50:30;;;;;;;41.10;19.70;;;;;;;13.96;100.00;98673.98;68421;1280;1016076;-71
2023/11/16 12:53:33;;;;;;;36.20;18.20;;;;;;;14.00;100.00;98684.21;68413;1280;1015801;-72
2023/11/16 12:56:37;;;;;;;38.30;19.60;;;;;;;13.62;100.00;98677.80;68423;1280;1015812;-72
2023/11/16 12:59:40;;;;;;;34.40;17.90;;;;;;;13.09;100.00;98674.52;68426;1280;1015437;-72
2023/11/16 13:02:43;;;;;;;37.70;19.00;;;;;;;12.97;100.00;98672.92;68424;1280;1015327;-72
2023/11/16 13:05:45;;;;;;;37.30;18.60;;;;;;;12.65;100.00;98665.36;68397;1280;1015579;-71
2023/11/16 13:08:49;;;;;;;41.20;20.40;;;;;;;12.63;100.00;98664.63;68424;1280;1015437;-71
2023/11/16 13:11:51;;;;;;;39.60;19.40;;;;;;;12.75;100.00;98661.34;68415;1280;1015419;-71
2023/11/16 13:14:54;;;;;;;39.00;20.60;;;;;;;12.79;100.00;98652.58;68442;1279;1015350;-72
2023/11/16 13:17:56;;;;;;;40.20;20.10;;;;;;;12.70;100.00;98649.58;68438;1279;1015196;-71
2023/11/16 13:21:03;;;;;;;45.00;21.50;;;;;;;12.66;100.00;98647.27;68421;1280;1015439;-71
2023/11/16 13:24:06;;;;;;;40.40;20.90;;;;;;;12.66;100.00;98646.68;68429;1280;1016145;-72
2023/11/16 13:27:08;;;;;;;44.60;21.10;;;;;;;12.60;100.00;98644.98;68417;1280;1015326;-72
2023/11/16 13:30:11;;;;;;;38.50;20.10;;;;;;;12.50;100.00;98648.02;68417;1279;1015380;-72
2023/11/16 13:33:14;;;;;;;42.20;21.50;;;;;;;12.32;100.00;98639.64;68446;1280;1015697;-71
2023/11/16 13:36:16;;;;;;;43.30;22.30;;;;;;;12.32;100.00;98638.84;68424;1280;1016282;-72
2023/11/16 13:39:19;;;;;;;49.60;23.00;;;;;;;12.30;100.00;98638.93;68427;1280;1015866;-71
2023/11/16 13:42:22;;;;;;;45.10;22.80;;;;;;;12.26;100.00;98638.67;68427;1280;1014847;-72
2023/11/16 13:45:24;;;;;;;49.10;23.40;;;;;;;12.21;100.00;98636.39;68436;1280;1015646;-71
2023/11/16 13:48:27;;;;;;;;;;;;;;;12.03;100.00;98631.55;68424;1280;1016191;-72
2023/11/16 13:51:30;;;;;;;;;;;;;;;12.01;100.00;98620.45;68432;1280;1015481;-72